Time;durP1;ratioP1;P1;durP2;ratioP2;P2;SDS_P1;SDS_P2;PMS_P1;PMS_P2;Temp;Humidity;BMP_temperature;BMP_pressure;BME280_temperature;BME280_humidity;BME280_pressure;Samples;Min_cycle;Max_cycle;Signal;HPM_P1;HPM_P2
2023/05/28 00:01:54;;;;;;;8.48;1.88;;;12.40;99.90;;;;;;5091169;28;20044;-74
2023/05/28 00:04:21;;;;;;;8.48;2.22;;;12.40;99.90;;;;;;5050781;28;20098;-74
2023/05/28 00:06:48;;;;;;;7.25;2.10;;;12.40;99.90;;;;;;5078151;28;20048;-74
2023/05/28 00:09:14;;;;;;;9.52;2.22;;;12.40;99.90;;;;;;5075712;28;20047;-74
2023/05/28 00:11:40;;;;;;;5.57;2.00;;;12.40;99.90;;;;;;5071246;28;20036;-74
2023/05/28 00:14:06;;;;;;;12.55;1.88;;;12.40;99.90;;;;;;5067350;28;20499;-74
2023/05/28 00:16:35;;;;;;;5.65;1.80;;;12.40;99.90;;;;;;5074742;28;20032;-74
2023/05/28 00:19:02;;;;;;;8.23;2.10;;;12.30;99.90;;;;;;5109203;27;20036;-74
2023/05/28 00:21:27;;;;;;;6.85;1.70;;;12.30;99.90;;;;;;5073276;28;20433;-74
2023/05/28 00:23:53;;;;;;;5.53;1.70;;;12.20;99.90;;;;;;5064574;28;20056;-74
2023/05/28 00:26:19;;;;;;;5.18;2.00;;;12.20;99.90;;;;;;5073430;28;20071;-74
2023/05/28 00:28:44;;;;;;;5.75;1.70;;;12.20;99.90;;;;;;5073776;28;21140;-74
2023/05/28 00:31:11;;;;;;;6.25;2.05;;;12.20;99.90;;;;;;5071822;28;20033;-74
2023/05/28 00:33:36;;;;;;;4.78;2.10;;;12.20;99.90;;;;;;5069344;28;20447;-74
2023/05/28 00:36:02;;;;;;;4.03;1.83;;;12.20;99.90;;;;;;5075942;28;20135;-74
2023/05/28 00:38:28;;;;;;;9.50;1.60;;;12.20;99.90;;;;;;5067030;28;20032;-74
2023/05/28 00:40:56;;;;;;;6.32;2.10;;;12.20;99.90;;;;;;5069121;28;22174;-74
2023/05/28 00:43:22;;;;;;;5.78;1.80;;;12.10;99.90;;;;;;5067474;28;20036;-74
2023/05/28 00:45:50;;;;;;;5.55;1.50;;;12.00;99.90;;;;;;5068935;28;20094;-73
2023/05/28 00:48:16;;;;;;;7.68;1.90;;;12.10;99.90;;;;;;5071364;28;20044;-74
2023/05/28 00:50:42;;;;;;;4.97;1.70;;;12.00;99.90;;;;;;5075249;28;20078;-74
2023/05/28 00:53:10;;;;;;;5.07;1.80;;;12.00;99.90;;;;;;5077773;28;20646;-74
2023/05/28 00:55:36;;;;;;;9.70;1.98;;;12.10;99.90;;;;;;5065584;28;20120;-74
2023/05/28 00:58:05;;;;;;;8.93;1.80;;;12.10;99.90;;;;;;5072923;28;20464;-74
2023/05/28 01:00:32;;;;;;;6.75;1.83;;;12.00;99.90;;;;;;5070543;28;20105;-74
2023/05/28 01:02:58;;;;;;;7.63;2.10;;;12.00;99.90;;;;;;5069630;28;20047;-74
2023/05/28 01:05:24;;;;;;;6.40;2.30;;;12.00;99.90;;;;;;5050986;28;20239;-74
2023/05/28 01:07:50;;;;;;;7.65;2.08;;;12.00;99.90;;;;;;5076345;28;20074;-74
2023/05/28 01:10:16;;;;;;;6.22;1.77;;;12.00;99.90;;;;;;5073855;28;20024;-74
2023/05/28 01:12:43;;;;;;;9.68;2.00;;;12.00;99.90;;;;;;5114045;27;20047;-74
2023/05/28 01:15:09;;;;;;;10.27;2.75;;;12.00;99.90;;;;;;5073600;28;20550;-74
2023/05/28 01:17:35;;;;;;;10.38;2.25;;;12.00;99.90;;;;;;5105034;27;20044;-74
2023/05/28 01:20:10;;;;;;;10.02;2.00;;;12.00;99.90;;;;;;5087955;28;20501;-74
2023/05/28 01:22:45;;;;;;;5.53;1.73;;;11.90;99.90;;;;;;5073549;28;20060;-74
2023/05/28 01:25:12;;;;;;;8.93;2.08;;;11.90;99.90;;;;;;5068923;28;20743;-74
2023/05/28 01:27:41;;;;;;;8.80;2.20;;;11.80;99.90;;;;;;5070638;28;20044;-74
2023/05/28 01:30:11;;;;;;;3.97;1.80;;;11.80;99.90;;;;;;5100759;27;20033;-74
2023/05/28 01:32:40;;;;;;;6.63;1.67;;;11.80;99.90;;;;;;5102713;27;20032;-74
2023/05/28 01:35:09;;;;;;;6.85;1.92;;;11.70;99.90;;;;;;5070942;28;20478;-74
2023/05/28 01:37:39;;;;;;;7.15;2.03;;;11.80;99.90;;;;;;5075141;28;20123;-74
2023/05/28 01:40:07;;;;;;;6.03;1.80;;;11.80;99.90;;;;;;5075236;28;20486;-74
2023/05/28 01:42:34;;;;;;;8.35;2.13;;;11.80;99.90;;;;;;5067649;28;20093;-74
2023/05/28 01:45:02;;;;;;;6.40;1.90;;;11.80;99.90;;;;;;5065813;28;20049;-74
2023/05/28 01:47:29;;;;;;;6.82;2.50;;;11.80;99.90;;;;;;5081377;28;21671;-74
2023/05/28 01:49:55;;;;;;;5.43;1.88;;;11.80;99.90;;;;;;5073830;28;20075;-73
2023/05/28 01:52:21;;;;;;;6.57;1.90;;;11.80;99.90;;;;;;5075225;28;20033;-74
2023/05/28 01:54:47;;;;;;;8.10;2.13;;;11.80;99.90;;;;;;5068257;28;20028;-74
2023/05/28 01:57:12;;;;;;;8.18;1.85;;;11.80;99.90;;;;;;5050556;28;20040;-74
2023/05/28 01:59:38;;;;;;;6.32;2.72;;;11.80;99.90;;;;;;5068278;28;20623;-74
2023/05/28 02:02:05;;;;;;;4.80;2.00;;;11.80;99.90;;;;;;5072440;28;20055;-73
2023/05/28 02:04:30;;;;;;;7.30;2.25;;;11.80;99.90;;;;;;5052596;28;20078;-74
2023/05/28 02:06:56;;;;;;;8.30;2.28;;;11.90;99.90;;;;;;5069031;28;20123;-74
2023/05/28 02:09:21;;;;;;;3.80;1.70;;;11.80;99.90;;;;;;5069861;28;20071;-73
2023/05/28 02:11:47;;;;;;;7.57;2.17;;;11.80;99.90;;;;;;5073438;28;20043;-74
2023/05/28 02:14:14;;;;;;;5.53;2.00;;;11.80;99.90;;;;;;5075572;28;20500;-74
2023/05/28 02:16:47;;;;;;;6.20;1.98;;;11.80;99.90;;;;;;5069356;28;20047;-73
2023/05/28 02:19:13;;;;;;;5.75;1.92;;;11.80;99.90;;;;;;5075798;28;20181;-74
2023/05/28 02:21:39;;;;;;;11.43;1.98;;;11.80;99.90;;;;;;5073859;28;20107;-74
2023/05/28 02:24:05;;;;;;;4.88;2.03;;;11.80;99.90;;;;;;5080270;28;20054;-73
2023/05/28 02:26:31;;;;;;;12.32;1.80;;;11.80;99.90;;;;;;5089257;28;20098;-73
2023/05/28 02:28:57;;;;;;;5.32;2.00;;;11.80;99.90;;;;;;5072583;28;20178;-74
2023/05/28 02:31:22;;;;;;;5.45;2.00;;;11.80;99.90;;;;;;5077058;28;20094;-74
2023/05/28 02:33:48;;;;;;;3.97;1.70;;;11.80;99.90;;;;;;5076941;28;20028;-73
2023/05/28 02:36:14;;;;;;;6.97;1.92;;;11.80;99.90;;;;;;5074624;28;20028;-73
2023/05/28 02:38:41;;;;;;;6.50;2.15;;;11.70;99.90;;;;;;5073057;28;20162;-73
2023/05/28 02:41:06;;;;;;;7.68;2.63;;;11.70;99.90;;;;;;5075286;28;20078;-73
2023/05/28 02:43:32;;;;;;;5.20;1.83;;;11.60;99.90;;;;;;5072538;28;20448;-74
2023/05/28 02:45:58;;;;;;;5.53;2.42;;;11.60;99.90;;;;;;5071969;28;20091;-73
2023/05/28 02:48:24;;;;;;;10.02;2.67;;;11.60;99.90;;;;;;5076635;28;20083;-73
2023/05/28 02:50:50;;;;;;;6.53;2.35;;;11.50;99.90;;;;;;5111296;27;20044;-73
2023/05/28 02:53:20;;;;;;;4.78;2.42;;;11.60;99.90;;;;;;5073034;28;20032;-73
2023/05/28 02:55:45;;;;;;;8.55;2.13;;;11.50;99.90;;;;;;5076874;28;20045;-73
2023/05/28 02:58:11;;;;;;;8.13;2.25;;;11.40;99.90;;;;;;5057175;28;20052;-74
2023/05/28 03:00:36;;;;;;;10.90;2.65;;;11.50;99.90;;;;;;5052911;28;20072;-73
2023/05/28 03:03:02;;;;;;;8.05;2.22;;;11.50;99.90;;;;;;5077523;28;20124;-73
2023/05/28 03:05:28;;;;;;;8.93;2.38;;;11.40;99.90;;;;;;5078396;28;20059;-73
2023/05/28 03:07:54;;;;;;;4.00;2.08;;;11.40;99.90;;;;;;5079724;28;20044;-73
2023/05/28 03:10:19;;;;;;;5.40;2.17;;;11.50;99.90;;;;;;5079497;28;20128;-73
2023/05/28 03:12:45;;;;;;;5.43;1.90;;;11.50;99.90;;;;;;5052396;28;20490;-73
2023/05/28 03:15:11;;;;;;;5.57;2.05;;;11.50;99.90;;;;;;5071393;28;20071;-74
2023/05/28 03:17:36;;;;;;;8.15;2.08;;;11.50;99.90;;;;;;5074546;28;20249;-73
2023/05/28 03:20:03;;;;;;;6.78;2.20;;;11.50;99.90;;;;;;5065623;28;20501;-73
2023/05/28 03:22:28;;;;;;;9.73;2.13;;;11.50;99.90;;;;;;5112792;27;20402;-73
2023/05/28 03:24:56;;;;;;;6.15;2.65;;;11.50;99.90;;;;;;5069650;28;20059;-74
2023/05/28 03:27:32;;;;;;;4.60;2.03;;;11.40;99.90;;;;;;5092267;27;20044;-73
2023/05/28 03:29:58;;;;;;;;;;;11.50;99.90;;;;;;5079860;28;20114;-74
2023/05/28 03:32:23;;;;;;;5.57;1.58;;;11.50;99.90;;;;;;5077106;28;20457;-73
2023/05/28 03:34:49;;;;;;;6.03;1.52;;;11.50;99.90;;;;;;5076626;28;20286;-73
2023/05/28 03:37:15;;;;;;;5.10;1.90;;;11.50;99.90;;;;;;5088175;27;20041;-73
2023/05/28 03:39:41;;;;;;;8.57;3.08;;;11.50;99.90;;;;;;5089797;27;20087;-74
2023/05/28 03:42:07;;;;;;;4.20;1.65;;;11.50;99.90;;;;;;5069968;28;21398;-73
2023/05/28 03:44:33;;;;;;;7.50;2.25;;;11.60;99.90;;;;;;5077571;28;20033;-74
2023/05/28 03:46:59;;;;;;;5.70;2.28;;;11.50;99.90;;;;;;5109211;27;20228;-74
2023/05/28 03:49:24;;;;;;;5.30;1.88;;;11.50;99.90;;;;;;5073020;28;20043;-73
2023/05/28 03:51:50;;;;;;;8.93;2.40;;;11.40;99.90;;;;;;5073960;28;20040;-74
2023/05/28 03:54:16;;;;;;;10.02;2.13;;;11.40;99.90;;;;;;5069695;28;20482;-73
2023/05/28 03:56:41;;;;;;;4.57;2.08;;;11.40;99.90;;;;;;5079100;28;20032;-73
2023/05/28 03:59:07;;;;;;;9.57;2.30;;;11.40;99.90;;;;;;5075843;28;20043;-74
2023/05/28 04:01:34;;;;;;;7.57;2.15;;;11.40;99.90;;;;;;5075181;28;20098;-74
2023/05/28 04:03:59;;;;;;;6.93;2.05;;;11.40;99.90;;;;;;5072906;28;20251;-73
2023/05/28 04:06:25;;;;;;;7.65;1.75;;;11.40;99.90;;;;;;5078805;28;20036;-73
2023/05/28 04:08:52;;;;;;;5.20;1.95;;;11.40;99.90;;;;;;5073295;28;20422;-74
2023/05/28 04:11:18;;;;;;;5.55;2.15;;;11.40;99.90;;;;;;5061815;28;20397;-74
2023/05/28 04:13:43;;;;;;;9.05;2.47;;;11.40;99.90;;;;;;5073871;28;20028;-74
2023/05/28 04:16:09;;;;;;;8.88;3.15;;;11.50;99.90;;;;;;5079917;28;20032;-74
2023/05/28 04:18:34;;;;;;;8.95;2.78;;;11.40;99.90;;;;;;5076819;28;20047;-74
2023/05/28 04:21:00;;;;;;;4.43;1.73;;;11.40;99.90;;;;;;5058856;28;20407;-74
2023/05/28 04:23:26;;;;;;;7.13;2.53;;;11.40;99.90;;;;;;5087918;28;20141;-74
2023/05/28 04:25:53;;;;;;;5.20;2.08;;;11.40;99.90;;;;;;5077978;28;20433;-74
2023/05/28 04:28:19;;;;;;;7.95;2.17;;;11.40;99.90;;;;;;5072644;28;20041;-73
2023/05/28 04:30:45;;;;;;;6.30;1.77;;;11.40;99.90;;;;;;5104188;27;20036;-73
2023/05/28 04:33:11;;;;;;;8.48;2.10;;;11.40;99.90;;;;;;5110945;27;20047;-74
2023/05/28 04:35:36;;;;;;;11.02;2.40;;;11.40;99.90;;;;;;5076866;28;20055;-73
2023/05/28 04:38:02;;;;;;;11.57;2.08;;;11.40;99.90;;;;;;5089385;28;20129;-74
2023/05/28 04:40:27;;;;;;;6.07;2.03;;;11.50;99.90;;;;;;5064600;28;20107;-74
2023/05/28 04:42:54;;;;;;;7.18;1.92;;;11.50;99.90;;;;;;5077212;28;20433;-73
2023/05/28 04:45:19;;;;;;;4.97;2.15;;;11.50;99.90;;;;;;5075707;28;20070;-73
2023/05/28 04:47:45;;;;;;;6.68;2.08;;;11.50;99.90;;;;;;5076432;28;20052;-74
2023/05/28 04:50:11;;;;;;;7.43;1.70;;;11.50;99.90;;;;;;5075842;28;20259;-73
2023/05/28 04:52:37;;;;;;;6.88;2.25;;;11.50;99.90;;;;;;5073467;28;20473;-73
2023/05/28 04:55:06;;;;;;;9.45;1.95;;;11.50;99.90;;;;;;5069713;28;20029;-74
2023/05/28 04:57:32;;;;;;;6.38;2.00;;;11.50;99.90;;;;;;5078191;28;20092;-73
2023/05/28 04:59:58;;;;;;;4.20;2.28;;;11.50;99.90;;;;;;5077303;28;20448;-74
2023/05/28 05:02:24;;;;;;;8.32;2.30;;;11.50;99.90;;;;;;5076982;28;20120;-73
2023/05/28 05:04:50;;;;;;;5.72;2.10;;;11.50;99.90;;;;;;5071829;28;20032;-74
2023/05/28 05:07:16;;;;;;;7.07;2.33;;;11.60;99.90;;;;;;5076472;28;20032;-73
2023/05/28 05:09:42;;;;;;;8.20;2.40;;;11.60;99.90;;;;;;5074091;28;20031;-74
2023/05/28 05:12:08;;;;;;;7.82;1.80;;;11.60;99.90;;;;;;5103600;27;20397;-73
2023/05/28 05:14:34;;;;;;;6.65;2.20;;;11.60;99.90;;;;;;5071853;28;20040;-74
2023/05/28 05:17:01;;;;;;;8.60;2.38;;;11.70;99.90;;;;;;5070237;28;20422;-73
2023/05/28 05:19:27;;;;;;;7.93;2.20;;;11.70;99.90;;;;;;5055210;28;20044;-73
2023/05/28 05:21:52;;;;;;;6.43;1.95;;;11.70;99.90;;;;;;5074825;28;20048;-73
2023/05/28 05:24:18;;;;;;;3.85;2.00;;;11.70;99.90;;;;;;5071179;28;20060;-74
2023/05/28 05:26:44;;;;;;;8.57;1.77;;;11.70;99.90;;;;;;5076976;28;20093;-73
2023/05/28 05:29:09;;;;;;;6.85;2.10;;;11.70;99.90;;;;;;5074097;28;20040;-74
2023/05/28 05:31:35;;;;;;;9.85;2.15;;;11.80;99.90;;;;;;5072566;28;20187;-73
2023/05/28 05:34:01;;;;;;;13.35;1.80;;;11.80;99.90;;;;;;5077860;28;20032;-74
2023/05/28 05:36:26;;;;;;;4.20;1.60;;;11.90;99.90;;;;;;5074734;28;20040;-73
2023/05/28 05:38:52;;;;;;;7.40;2.17;;;11.90;99.90;;;;;;5065645;28;20044;-74
2023/05/28 05:41:18;;;;;;;8.38;1.80;;;12.00;99.90;;;;;;5073045;28;20028;-73
2023/05/28 05:43:43;;;;;;;6.90;2.38;;;12.10;99.90;;;;;;5107170;27;20085;-74
2023/05/28 05:46:09;;;;;;;6.30;1.75;;;12.10;99.90;;;;;;5081188;28;20150;-74
2023/05/28 05:48:35;;;;;;;5.78;1.60;;;12.20;99.90;;;;;;5077439;28;20394;-74
2023/05/28 05:51:02;;;;;;;6.15;1.77;;;12.30;99.90;;;;;;5110571;27;20475;-74
2023/05/28 05:53:28;;;;;;;7.05;2.78;;;12.40;99.90;;;;;;5083382;28;20028;-74
2023/05/28 05:55:54;;;;;;;5.50;1.77;;;12.40;99.90;;;;;;5081227;28;20481;-74
2023/05/28 05:58:20;;;;;;;4.80;2.05;;;12.50;99.90;;;;;;5079314;28;20028;-74
2023/05/28 06:00:47;;;;;;;7.68;1.50;;;12.60;99.90;;;;;;5057347;28;20036;-74
2023/05/28 06:03:13;;;;;;;4.75;2.10;;;12.80;99.90;;;;;;5076503;28;20097;-74
2023/05/28 06:05:40;;;;;;;6.82;1.70;;;12.70;99.90;;;;;;5080802;28;20089;-74
2023/05/28 06:08:05;;;;;;;10.27;2.22;;;12.80;99.90;;;;;;5056330;28;20082;-74
2023/05/28 06:10:31;;;;;;;5.88;1.60;;;12.80;99.90;;;;;;5071702;28;20076;-74
2023/05/28 06:13:00;;;;;;;4.78;1.60;;;12.90;99.90;;;;;;5074538;28;20274;-74
2023/05/28 06:15:31;;;;;;;4.75;1.50;;;12.90;99.90;;;;;;5078663;28;20387;-74
2023/05/28 06:17:56;;;;;;;9.05;2.58;;;12.90;99.90;;;;;;5077534;28;20052;-73
2023/05/28 06:20:22;;;;;;;6.32;2.00;;;12.90;99.90;;;;;;5106037;27;20048;-73
2023/05/28 06:22:48;;;;;;;11.00;2.33;;;13.00;99.90;;;;;;5067773;28;21563;-73
2023/05/28 06:25:14;;;;;;;6.28;1.98;;;13.10;99.90;;;;;;5073743;28;20047;-74
2023/05/28 06:27:40;;;;;;;4.20;1.38;;;13.20;99.90;;;;;;5090755;27;20043;-74
2023/05/28 06:30:06;;;;;;;6.38;1.67;;;13.20;99.90;;;;;;5081008;28;20051;-73
2023/05/28 06:32:32;;;;;;;10.75;2.22;;;13.40;99.90;;;;;;5075307;28;20028;-74
2023/05/28 06:34:57;;;;;;;5.63;1.45;;;14.00;99.90;;;;;;5078775;28;20386;-74
2023/05/28 06:37:23;;;;;;;5.13;1.80;;;15.10;99.90;;;;;;5082039;28;20486;-73
2023/05/28 06:39:48;;;;;;;6.70;1.85;;;16.10;99.90;;;;;;5080512;28;20056;-73
2023/05/28 06:42:14;;;;;;;8.80;2.33;;;16.90;99.90;;;;;;5069760;28;20517;-74
2023/05/28 06:44:40;;;;;;;5.05;2.03;;;17.60;99.90;;;;;;5075773;28;20044;-74
2023/05/28 06:47:05;;;;;;;5.72;2.10;;;18.30;99.00;;;;;;5071633;28;20044;-75
2023/05/28 06:49:31;;;;;;;7.97;1.77;;;18.70;97.80;;;;;;5068872;28;20161;-74
2023/05/28 06:51:58;;;;;;;7.50;2.10;;;18.90;97.10;;;;;;5110501;27;20043;-74
2023/05/28 06:54:23;;;;;;;6.15;2.13;;;18.70;97.50;;;;;;5068563;28;20143;-74
2023/05/28 06:56:49;;;;;;;5.47;1.83;;;18.10;97.70;;;;;;5106380;27;20521;-75
2023/05/28 06:59:15;;;;;;;7.68;1.77;;;17.40;98.50;;;;;;5068208;28;20041;-75
2023/05/28 07:01:41;;;;;;;9.07;1.90;;;16.90;99.40;;;;;;5066625;28;20195;-75
2023/05/28 07:04:06;;;;;;;7.78;2.05;;;16.40;99.90;;;;;;5067352;28;20089;-75
2023/05/28 07:06:33;;;;;;;8.80;2.08;;;16.00;99.90;;;;;;5066620;28;20128;-75
2023/05/28 07:08:59;;;;;;;9.27;1.95;;;15.80;99.90;;;;;;5067438;28;20033;-75
2023/05/28 07:11:26;;;;;;;4.78;1.80;;;15.60;99.90;;;;;;5070931;28;20090;-75
2023/05/28 07:13:54;;;;;;;5.93;2.50;;;15.50;99.90;;;;;;5068889;28;20043;-75
2023/05/28 07:16:21;;;;;;;6.15;2.40;;;15.30;99.90;;;;;;5070226;28;20036;-75
2023/05/28 07:18:47;;;;;;;5.97;1.92;;;15.20;99.90;;;;;;5056523;28;20602;-75
2023/05/28 07:23:48;;;;;;;5.65;2.17;;;15.10;99.90;;;;;;2085785;22;20091;-72
2023/05/28 07:26:13;;;;;;;5.88;2.30;;;15.10;99.90;;;;;;5037264;28;20046;-72
2023/05/28 07:28:39;;;;;;;7.25;2.28;;;15.10;99.90;;;;;;5012526;28;20119;-72
2023/05/28 07:31:05;;;;;;;6.22;1.75;;;15.00;99.90;;;;;;5003637;28;20045;-72
2023/05/28 07:33:30;;;;;;;4.45;2.05;;;15.00;99.90;;;;;;5019511;28;20037;-72
2023/05/28 07:35:56;;;;;;;4.60;2.28;;;15.00;99.90;;;;;;5020470;28;20044;-72
2023/05/28 07:38:21;;;;;;;6.60;1.88;;;15.00;99.70;;;;;;5020210;28;21280;-72
2023/05/28 07:40:47;;;;;;;6.20;1.92;;;15.00;99.30;;;;;;5040850;28;20087;-72
2023/05/28 07:43:12;;;;;;;7.45;2.45;;;15.00;99.10;;;;;;5020012;28;20057;-72
2023/05/28 07:45:38;;;;;;;5.97;2.40;;;15.00;98.90;;;;;;5040913;28;20063;-72
2023/05/28 07:48:04;;;;;;;6.65;2.05;;;15.10;98.60;;;;;;5022948;28;20040;-72
2023/05/28 07:50:30;;;;;;;5.65;2.10;;;15.10;98.00;;;;;;5005549;28;20052;-72
2023/05/28 07:52:56;;;;;;;7.90;2.88;;;15.10;97.90;;;;;;5024001;28;20045;-72
2023/05/28 07:55:21;;;;;;;5.47;2.22;;;15.10;97.90;;;;;;5043123;28;20036;-73
2023/05/28 07:57:47;;;;;;;7.65;2.53;;;15.20;97.80;;;;;;5022483;28;20053;-72
2023/05/28 08:00:15;;;;;;;8.25;1.67;;;15.10;97.30;;;;;;5024903;28;20048;-72
2023/05/28 08:02:43;;;;;;;10.38;2.35;;;15.20;97.00;;;;;;5027004;28;20509;-72
2023/05/28 08:05:09;;;;;;;5.00;1.98;;;15.30;96.90;;;;;;5042774;28;20127;-72
2023/05/28 08:07:35;;;;;;;5.50;2.20;;;15.30;96.40;;;;;;5020205;28;20128;-72
2023/05/28 08:10:01;;;;;;;4.47;2.17;;;15.30;96.30;;;;;;5021457;28;20091;-72
2023/05/28 08:12:27;;;;;;;7.18;2.33;;;15.30;95.60;;;;;;5026255;28;20025;-72
2023/05/28 08:14:52;;;;;;;6.55;2.28;;;15.40;95.80;;;;;;5011291;28;20037;-72
2023/05/28 08:17:21;;;;;;;7.25;1.95;;;15.40;95.80;;;;;;5023567;28;20052;-72
2023/05/28 08:19:47;;;;;;;6.53;2.35;;;15.40;95.50;;;;;;5020518;28;20044;-72
2023/05/28 08:22:12;;;;;;;8.18;2.38;;;15.50;95.20;;;;;;5039437;28;20033;-72
2023/05/28 08:24:38;;;;;;;6.60;2.13;;;15.50;95.50;;;;;;5045054;28;20049;-72
2023/05/28 08:27:05;;;;;;;6.32;2.03;;;15.50;95.20;;;;;;5023301;28;20532;-72
2023/05/28 08:29:31;;;;;;;6.88;2.10;;;15.60;95.20;;;;;;5026625;28;20033;-72
2023/05/28 08:31:57;;;;;;;8.18;2.00;;;15.50;95.10;;;;;;5046799;28;20499;-72
2023/05/28 08:34:23;;;;;;;7.22;2.42;;;15.60;95.00;;;;;;5021825;28;20072;-72
2023/05/28 08:36:49;;;;;;;6.90;1.80;;;15.60;94.90;;;;;;5021619;28;20115;-72
2023/05/28 08:39:15;;;;;;;6.03;2.20;;;15.60;95.00;;;;;;5021370;28;20064;-72
2023/05/28 08:41:41;;;;;;;4.63;1.85;;;15.70;95.00;;;;;;5007825;28;20120;-72
2023/05/28 08:44:06;;;;;;;6.13;2.03;;;15.70;95.10;;;;;;5025424;28;20393;-72
2023/05/28 08:46:32;;;;;;;6.07;2.03;;;15.70;95.10;;;;;;5028143;28;20071;-72
2023/05/28 08:48:58;;;;;;;7.82;2.20;;;15.80;95.00;;;;;;5043732;28;20029;-72
2023/05/28 08:51:25;;;;;;;7.03;1.50;;;15.80;94.60;;;;;;5047770;28;20037;-71
2023/05/28 08:53:52;;;;;;;6.60;1.95;;;16.00;94.70;;;;;;5021700;28;20049;-72
2023/05/28 08:56:18;;;;;;;9.52;2.42;;;15.90;94.70;;;;;;5043945;28;20297;-72
2023/05/28 08:58:45;;;;;;;7.07;1.88;;;16.00;94.60;;;;;;5039725;28;20121;-72
2023/05/28 09:01:10;;;;;;;6.30;1.85;;;16.00;94.50;;;;;;5028618;28;20410;-72
2023/05/28 09:03:39;;;;;;;6.35;2.67;;;16.10;94.30;;;;;;5047537;28;20029;-72
2023/05/28 09:06:04;;;;;;;5.15;1.80;;;16.10;93.90;;;;;;5026355;28;20029;-72
2023/05/28 09:08:30;;;;;;;5.78;1.80;;;16.10;93.50;;;;;;5007703;28;20041;-72
2023/05/28 09:10:56;;;;;;;11.93;2.20;;;16.10;93.20;;;;;;5024897;28;20042;-72
2023/05/28 09:13:22;;;;;;;4.65;1.67;;;16.20;93.00;;;;;;5030266;28;20040;-72
2023/05/28 09:15:52;;;;;;;4.03;1.55;;;16.20;93.30;;;;;;5045142;28;20504;-72
2023/05/28 09:18:21;;;;;;;4.75;1.60;;;16.20;93.00;;;;;;5042049;28;20152;-72
2023/05/28 09:20:48;;;;;;;6.90;2.42;;;16.20;93.00;;;;;;5027660;28;20037;-72
2023/05/28 09:23:17;;;;;;;7.88;1.90;;;16.20;92.70;;;;;;5032927;28;20033;-72
2023/05/28 09:25:44;;;;;;;7.85;1.92;;;16.30;92.30;;;;;;5031706;28;20523;-72
2023/05/28 09:28:15;;;;;;;11.90;3.00;;;16.30;92.60;;;;;;5027883;28;20045;-72
2023/05/28 09:30:41;;;;;;;6.63;1.80;;;16.30;92.10;;;;;;5028388;28;20405;-72
2023/05/28 09:33:08;;;;;;;6.55;2.08;;;16.40;92.00;;;;;;5033092;28;20040;-72
2023/05/28 09:35:35;;;;;;;5.35;2.25;;;16.50;91.90;;;;;;5033681;28;20468;-72
2023/05/28 09:38:07;;;;;;;7.45;2.40;;;16.50;91.00;;;;;;5035328;28;20406;-72
2023/05/28 09:40:41;;;;;;;6.70;1.98;;;16.50;83.90;;;;;;5030528;28;20044;-72
2023/05/28 09:43:08;;;;;;;5.10;2.22;;;16.60;87.60;;;;;;5027523;28;20061;-72
2023/05/28 09:45:34;;;;;;;7.18;2.45;;;16.60;88.60;;;;;;5045016;28;20091;-72
2023/05/28 09:48:00;;;;;;;6.75;2.78;;;16.60;88.30;;;;;;5041823;28;20040;-72
2023/05/28 09:50:26;;;;;;;4.97;1.90;;;16.70;86.30;;;;;;5029256;28;20497;-72
2023/05/28 09:52:55;;;;;;;5.78;2.30;;;16.80;85.10;;;;;;5053942;28;20028;-72
2023/05/28 09:55:27;;;;;;;5.57;1.85;;;16.90;84.70;;;;;;5033975;28;20039;-72
2023/05/28 09:58:02;;;;;;;7.60;2.33;;;16.90;83.10;;;;;;5023415;28;20517;-72
2023/05/28 10:00:42;;;;;;;;;;;16.90;77.80;;;;;;5052523;28;20116;-72
2023/05/28 10:03:15;;;;;;;7.13;2.13;;;16.90;65.30;;;;;;5028633;28;19978;-72
2023/05/28 10:05:43;;;;;;;5.47;1.70;;;17.00;82.20;;;;;;5046558;28;20076;-72
2023/05/28 10:08:12;;;;;;;6.07;1.83;;;17.00;82.00;;;;;;5046873;28;20077;-72
2023/05/28 10:10:41;;;;;;;4.78;2.10;;;17.10;79.10;;;;;;5032145;28;20120;-72
2023/05/28 10:13:09;;;;;;;5.80;1.70;;;17.00;80.50;;;;;;5033011;28;20558;-72
2023/05/28 10:15:36;;;;;;;7.05;1.92;;;17.20;80.50;;;;;;5011103;28;20029;-72
2023/05/28 10:18:03;;;;;;;5.50;1.70;;;17.20;79.50;;;;;;5027041;28;20037;-73
2023/05/28 10:20:29;;;;;;;6.55;1.88;;;17.20;77.20;;;;;;5023685;28;20080;-72
2023/05/28 10:22:55;;;;;;;4.65;1.83;;;17.20;77.90;;;;;;5026312;28;20267;-73
2023/05/28 10:25:22;;;;;;;5.28;1.65;;;17.30;77.20;;;;;;5025141;28;20173;-72
2023/05/28 10:27:48;;;;;;;4.78;1.80;;;17.40;77.10;;;;;;5030204;28;20126;-71
2023/05/28 10:30:34;;;;;;;5.22;1.73;;;17.40;74.50;;;;;;5027842;28;20048;-73
2023/05/28 10:33:04;;;;;;;8.15;1.90;;;17.40;71.00;;;;;;5028927;28;20437;-72
2023/05/28 10:35:33;;;;;;;6.70;1.83;;;17.50;74.80;;;;;;5029251;28;20318;-74
2023/05/28 10:38:06;;;;;;;7.53;2.10;;;17.50;74.50;;;;;;5026946;28;20132;-72
2023/05/28 10:40:34;;;;;;;5.20;2.08;;;17.50;74.80;;;;;;5047027;28;20052;-72
2023/05/28 10:43:00;;;;;;;7.53;2.13;;;17.50;75.40;;;;;;5031545;28;20261;-72
2023/05/28 10:45:36;;;;;;;8.55;2.00;;;17.50;76.70;;;;;;5042174;28;20044;-72
2023/05/28 10:48:02;;;;;;;5.40;2.00;;;17.50;73.30;;;;;;5015982;28;20076;-72
2023/05/28 10:50:27;;;;;;;6.03;1.80;;;17.60;76.70;;;;;;5046433;28;20474;-72
2023/05/28 10:53:07;;;;;;;7.70;1.88;;;17.70;75.40;;;;;;5026746;28;20091;-72
2023/05/28 10:55:53;;;;;;;4.78;1.90;;;17.70;72.00;;;;;;5039751;28;20033;-72
2023/05/28 10:58:35;;;;;;;4.25;1.50;;;17.70;62.90;;;;;;5039591;28;20059;-72
2023/05/28 11:01:18;;;;;;;4.13;1.60;;;17.80;65.00;;;;;;5024219;28;20393;-72
2023/05/28 11:03:47;;;;;;;5.25;1.55;;;17.80;70.60;;;;;;5031636;28;20114;-72
2023/05/28 11:06:13;;;;;;;5.10;1.70;;;17.90;69.40;;;;;;5012498;28;20028;-72
2023/05/28 11:08:44;;;;;;;5.35;1.58;;;17.80;69.00;;;;;;5041685;28;20098;-72
2023/05/28 11:11:12;;;;;;;4.25;1.60;;;17.80;62.90;;;;;;5006908;28;20033;-72
2023/05/28 11:13:38;;;;;;;5.57;2.13;;;17.90;65.50;;;;;;5009715;28;20439;-72
2023/05/28 11:16:09;;;;;;;4.78;1.33;;;17.90;65.10;;;;;;5039225;28;20044;-72
2023/05/28 11:18:35;;;;;;;4.10;1.73;;;17.90;64.50;;;;;;5021264;28;20140;-72
2023/05/28 11:21:08;;;;;;;4.10;1.80;;;17.90;63.90;;;;;;5023182;28;20514;-72
2023/05/28 11:23:39;;;;;;;5.20;1.70;;;18.00;60.40;;;;;;5023183;28;20076;-72
2023/05/28 11:26:20;;;;;;;4.65;1.60;;;18.00;63.40;;;;;;5041049;28;20098;-73
2023/05/28 11:28:49;;;;;;;4.20;1.63;;;18.00;64.10;;;;;;5038700;28;20033;-71
2023/05/28 11:31:15;;;;;;;3.85;1.83;;;18.00;59.70;;;;;;5028946;28;20112;-72
2023/05/28 11:33:40;;;;;;;5.72;1.38;;;18.10;60.10;;;;;;5029024;28;20040;-72
2023/05/28 11:36:06;;;;;;;6.20;2.10;;;18.10;57.50;;;;;;5030830;28;20037;-71
2023/05/28 11:38:32;;;;;;;5.32;1.70;;;18.20;58.30;;;;;;5028269;28;20787;-71
2023/05/28 11:41:01;;;;;;;4.68;1.80;;;18.10;57.60;;;;;;5019315;28;20052;-71
2023/05/28 11:43:27;;;;;;;4.30;1.98;;;18.20;56.80;;;;;;5042848;28;20417;-71
2023/05/28 11:46:00;;;;;;;4.85;1.80;;;18.20;56.40;;;;;;5021725;28;20033;-72
2023/05/28 11:48:27;;;;;;;5.60;1.83;;;18.30;56.70;;;;;;5025783;28;20044;-72
2023/05/28 11:51:00;;;;;;;6.43;2.00;;;18.30;57.40;;;;;;5030618;28;20056;-72
2023/05/28 11:53:46;;;;;;;5.97;1.85;;;18.30;57.00;;;;;;5049367;28;20048;-71
2023/05/28 11:56:13;;;;;;;4.80;1.65;;;18.30;55.50;;;;;;5049107;28;20037;-72
2023/05/28 11:58:44;;;;;;;5.78;2.00;;;18.40;56.60;;;;;;5049688;28;20052;-72
2023/05/28 12:01:14;;;;;;;3.35;1.48;;;18.40;57.20;;;;;;5031476;28;20041;-72
2023/05/28 12:03:40;;;;;;;5.85;2.20;;;18.50;56.60;;;;;;5049906;28;20094;-72
2023/05/28 12:06:06;;;;;;;4.10;1.80;;;18.50;56.80;;;;;;5031262;28;20045;-72
2023/05/28 12:08:31;;;;;;;4.82;1.63;;;18.50;57.10;;;;;;5014394;28;20425;-72
2023/05/28 12:11:03;;;;;;;5.53;1.92;;;18.50;56.20;;;;;;5012759;28;20528;-72
2023/05/28 12:13:34;;;;;;;5.25;1.55;;;18.40;55.50;;;;;;5029863;28;20065;-72
2023/05/28 12:16:07;;;;;;;6.10;1.58;;;18.50;55.00;;;;;;5014891;28;20044;-72
2023/05/28 12:18:33;;;;;;;4.05;1.70;;;18.60;54.60;;;;;;5045253;28;20116;-72
2023/05/28 12:20:59;;;;;;;5.63;1.40;;;18.60;54.50;;;;;;5049617;28;20426;-72
2023/05/28 12:23:25;;;;;;;5.07;1.15;;;18.50;53.50;;;;;;5030620;28;20049;-72
2023/05/28 12:25:52;;;;;;;3.13;1.15;;;18.60;52.60;;;;;;5030278;28;20146;-72
2023/05/28 12:28:20;;;;;;;2.70;1.17;;;18.60;53.00;;;;;;5030761;28;20058;-72
2023/05/28 12:30:54;;;;;;;3.30;1.30;;;18.60;53.20;;;;;;5032127;28;20048;-72
2023/05/28 12:33:20;;;;;;;5.90;1.83;;;18.60;52.80;;;;;;5031241;28;20044;-72
2023/05/28 12:35:47;;;;;;;5.30;1.63;;;18.70;53.40;;;;;;5027049;28;20502;-72
2023/05/28 12:38:13;;;;;;;2.85;1.30;;;18.70;53.60;;;;;;5029202;28;20055;-72
2023/05/28 12:40:40;;;;;;;3.25;1.33;;;18.70;53.80;;;;;;5031381;28;20203;-72
2023/05/28 12:43:07;;;;;;;3.22;1.33;;;18.80;54.10;;;;;;5013531;28;20041;-72
2023/05/28 12:45:32;;;;;;;5.93;1.50;;;18.80;54.80;;;;;;5029297;28;20052;-72
2023/05/28 12:47:58;;;;;;;3.30;1.27;;;18.80;55.00;;;;;;5048120;28;20056;-72
2023/05/28 12:50:23;;;;;;;5.28;1.13;;;18.80;55.40;;;;;;5029992;28;20453;-72